sensor_id;sensor_type;location;lat;lon;timestamp;pressure;altitude;pressure_sealevel;temperature;humidity
71457;BME280;59263;48.160;11.752;2023-02-28T00:00:21;96383.09;;;-3.83;100.00
71457;BME280;59263;48.160;11.752;2023-02-28T00:02:47;96343.38;;;-4.09;100.00
71457;BME280;59263;48.160;11.752;2023-02-28T00:05:16;96368.94;;;-3.89;100.00
71457;BME280;59263;48.160;11.752;2023-02-28T00:07:42;96357.25;;;-3.93;100.00
71457;BME280;59263;48.160;11.752;2023-02-28T00:10:10;96341.47;;;-4.01;100.00
71457;BME280;59263;48.160;11.752;2023-02-28T00:12:37;96370.69;;;-3.91;100.00
71457;BME280;59263;48.160;11.752;2023-02-28T00:15:07;96371.47;;;-3.89;100.00
71457;BME280;59263;48.160;11.752;2023-02-28T00:17:33;96366.50;;;-3.92;100.00
71457;BME280;59263;48.160;11.752;2023-02-28T00:19:58;96371.50;;;-3.91;100.00
71457;BME280;59263;48.160;11.752;2023-02-28T00:22:32;96366.59;;;-3.95;100.00
71457;BME280;59263;48.160;11.752;2023-02-28T00:24:59;96349.31;;;-4.10;100.00
71457;BME280;59263;48.160;11.752;2023-02-28T00:27:25;96374.94;;;-3.93;100.00
71457;BME280;59263;48.160;11.752;2023-02-28T00:29:53;96360.88;;;-4.02;100.00
71457;BME280;59263;48.160;11.752;2023-02-28T00:32:19;96333.69;;;-4.25;100.00
71457;BME280;59263;48.160;11.752;2023-02-28T00:34:47;96331.31;;;-4.31;100.00
71457;BME280;59263;48.160;11.752;2023-02-28T00:37:13;96340.56;;;-4.30;100.00
71457;BME280;59263;48.160;11.752;2023-02-28T00:39:39;96361.00;;;-4.08;100.00
71457;BME280;59263;48.160;11.752;2023-02-28T00:42:07;96359.50;;;-4.14;100.00
71457;BME280;59263;48.160;11.752;2023-02-28T00:44:33;96324.75;;;-4.36;100.00
71457;BME280;59263;48.160;11.752;2023-02-28T00:46:59;96322.09;;;-4.32;100.00
71457;BME280;59263;48.160;11.752;2023-02-28T00:49:26;96346.88;;;-4.14;100.00
71457;BME280;59263;48.160;11.752;2023-02-28T00:51:52;96345.22;;;-4.15;100.00
71457;BME280;59263;48.160;11.752;2023-02-28T00:54:18;96340.41;;;-4.24;100.00
71457;BME280;59263;48.160;11.752;2023-02-28T00:56:44;96350.28;;;-4.15;100.00
71457;BME280;59263;48.160;11.752;2023-02-28T00:59:11;96325.31;;;-4.27;100.00
71457;BME280;59263;48.160;11.752;2023-02-28T01:01:37;96352.00;;;-4.17;100.00
71457;BME280;59263;48.160;11.752;2023-02-28T01:04:03;96340.56;;;-4.30;100.00
71457;BME280;59263;48.160;11.752;2023-02-28T01:06:29;96363.94;;;-4.22;100.00
71457;BME280;59263;48.160;11.752;2023-02-28T01:08:55;96337.56;;;-4.44;100.00
71457;BME280;59263;48.160;11.752;2023-02-28T01:11:20;96364.16;;;-4.31;100.00
71457;BME280;59263;48.160;11.752;2023-02-28T01:13:48;96332.59;;;-4.47;100.00
71457;BME280;59263;48.160;11.752;2023-02-28T01:16:16;96356.63;;;-4.32;100.00
71457;BME280;59263;48.160;11.752;2023-02-28T01:18:41;96362.63;;;-4.36;100.00
71457;BME280;59263;48.160;11.752;2023-02-28T01:21:10;96355.88;;;-4.36;100.00
71457;BME280;59263;48.160;11.752;2023-02-28T01:23:36;96337.59;;;-4.46;100.00
71457;BME280;59263;48.160;11.752;2023-02-28T01:26:09;96350.81;;;-4.36;100.00
71457;BME280;59263;48.160;11.752;2023-02-28T01:28:35;96345.06;;;-4.41;100.00
71457;BME280;59263;48.160;11.752;2023-02-28T01:31:01;96335.16;;;-4.49;100.00
71457;BME280;59263;48.160;11.752;2023-02-28T01:33:26;96348.31;;;-4.38;100.00
71457;BME280;59263;48.160;11.752;2023-02-28T01:35:59;96343.25;;;-4.36;100.00
71457;BME280;59263;48.160;11.752;2023-02-28T01:38:27;96339.16;;;-4.40;100.00
71457;BME280;59263;48.160;11.752;2023-02-28T01:40:52;96329.28;;;-4.49;100.00
71457;BME280;59263;48.160;11.752;2023-02-28T01:43:23;96316.78;;;-4.54;100.00
71457;BME280;59263;48.160;11.752;2023-02-28T01:45:53;96305.25;;;-4.64;100.00
71457;BME280;59263;48.160;11.752;2023-02-28T01:48:21;96323.53;;;-4.54;100.00
71457;BME280;59263;48.160;11.752;2023-02-28T01:50:47;96321.13;;;-4.60;100.00
71457;BME280;59263;48.160;11.752;2023-02-28T01:53:17;96325.97;;;-4.51;100.00
71457;BME280;59263;48.160;11.752;2023-02-28T01:55:47;96315.19;;;-4.58;100.00
71457;BME280;59263;48.160;11.752;2023-02-28T01:58:15;96304.28;;;-4.58;100.00
71457;BME280;59263;48.160;11.752;2023-02-28T02:00:43;96290.22;;;-4.69;100.00
71457;BME280;59263;48.160;11.752;2023-02-28T02:03:11;96306.78;;;-4.58;100.00
71457;BME280;59263;48.160;11.752;2023-02-28T02:05:40;96304.41;;;-4.65;100.00
71457;BME280;59263;48.160;11.752;2023-02-28T02:08:17;96324.47;;;-4.58;100.00
71457;BME280;59263;48.160;11.752;2023-02-28T02:10:46;96321.22;;;-4.64;100.00
71457;BME280;59263;48.160;11.752;2023-02-28T02:16:22;96314.59;;;-4.68;100.00
71457;BME280;59263;48.160;11.752;2023-02-28T02:18:54;96309.66;;;-4.71;100.00
71457;BME280;59263;48.160;11.752;2023-02-28T02:30:29;96307.06;;;-4.69;100.00
71457;BME280;59263;48.160;11.752;2023-02-28T02:35:45;96302.84;;;-4.69;100.00
71457;BME280;59263;48.160;11.752;2023-02-28T02:38:22;96312.94;;;-4.69;100.00
71457;BME280;59263;48.160;11.752;2023-02-28T02:41:08;96303.00;;;-4.75;100.00
71457;BME280;59263;48.160;11.752;2023-02-28T02:43:49;96310.41;;;-4.67;100.00
71457;BME280;59263;48.160;11.752;2023-02-28T02:46:23;96281.19;;;-4.77;100.00
71457;BME280;59263;48.160;11.752;2023-02-28T02:48:51;96306.00;;;-4.60;100.00
71457;BME280;59263;48.160;11.752;2023-02-28T02:51:23;96283.84;;;-4.82;100.00
71457;BME280;59263;48.160;11.752;2023-02-28T02:53:54;96310.41;;;-4.67;100.00
71457;BME280;59263;48.160;11.752;2023-02-28T02:56:24;96318.00;;;-4.69;100.00
71457;BME280;59263;48.160;11.752;2023-02-28T02:58:52;96283.34;;;-4.96;100.00
71457;BME280;59263;48.160;11.752;2023-02-28T03:01:21;96305.69;;;-4.81;100.00
71457;BME280;59263;48.160;11.752;2023-02-28T03:04:02;96299.91;;;-4.86;100.00
71457;BME280;59263;48.160;11.752;2023-02-28T03:06:28;96314.00;;;-4.77;100.00
71457;BME280;59263;48.160;11.752;2023-02-28T03:08:53;96293.22;;;-4.87;100.00
71457;BME280;59263;48.160;11.752;2023-02-28T03:11:19;96280.03;;;-4.98;100.00
71457;BME280;59263;48.160;11.752;2023-02-28T03:16:34;96313.09;;;-4.75;100.00
71457;BME280;59263;48.160;11.752;2023-02-28T03:22:14;96303.31;;;-4.87;100.00
71457;BME280;59263;48.160;11.752;2023-02-28T03:27:27;96294.22;;;-4.93;100.00
71457;BME280;59263;48.160;11.752;2023-02-28T03:30:04;96273.41;;;-5.02;100.00
71457;BME280;59263;48.160;11.752;2023-02-28T03:32:38;96300.75;;;-4.85;100.00
71457;BME280;59263;48.160;11.752;2023-02-28T03:35:12;96282.59;;;-5.00;100.00
71457;BME280;59263;48.160;11.752;2023-02-28T03:37:48;96272.59;;;-5.03;100.00
71457;BME280;59263;48.160;11.752;2023-02-28T03:40:25;96304.75;;;-4.77;100.00
71457;BME280;59263;48.160;11.752;2023-02-28T03:43:03;96284.13;;;-4.93;100.00
71457;BME280;59263;48.160;11.752;2023-02-28T03:45:32;96280.09;;;-5.01;100.00
71457;BME280;59263;48.160;11.752;2023-02-28T03:48:13;96298.50;;;-4.96;100.00
71457;BME280;59263;48.160;11.752;2023-02-28T03:50:42;96275.22;;;-5.07;100.00
71457;BME280;59263;48.160;11.752;2023-02-28T03:53:13;96304.25;;;-4.91;100.00
71457;BME280;59263;48.160;11.752;2023-02-28T03:55:42;96321.78;;;-4.85;100.00
71457;BME280;59263;48.160;11.752;2023-02-28T03:58:27;96325.25;;;-4.89;100.00
71457;BME280;59263;48.160;11.752;2023-02-28T04:00:59;96311.97;;;-4.97;100.00
71457;BME280;59263;48.160;11.752;2023-02-28T04:03:35;96322.97;;;-5.00;100.00
71457;BME280;59263;48.160;11.752;2023-02-28T04:06:01;96330.38;;;-4.94;100.00
71457;BME280;59263;48.160;11.752;2023-02-28T04:08:26;96293.25;;;-5.23;100.00
71457;BME280;59263;48.160;11.752;2023-02-28T04:11:00;96330.63;;;-5.04;100.00
71457;BME280;59263;48.160;11.752;2023-02-28T04:13:26;96331.56;;;-5.07;100.00
71457;BME280;59263;48.160;11.752;2023-02-28T04:15:52;96325.75;;;-5.11;100.00
71457;BME280;59263;48.160;11.752;2023-02-28T04:18:17;96330.81;;;-5.12;100.00
71457;BME280;59263;48.160;11.752;2023-02-28T04:20:42;96318.28;;;-5.15;100.00
71457;BME280;59263;48.160;11.752;2023-02-28T04:23:08;96321.38;;;-5.04;100.00
71457;BME280;59263;48.160;11.752;2023-02-28T04:25:33;96319.63;;;-5.00;100.00
71457;BME280;59263;48.160;11.752;2023-02-28T04:27:58;96326.16;;;-4.93;100.00
71457;BME280;59263;48.160;11.752;2023-02-28T04:30:24;96336.16;;;-4.89;100.00
71457;BME280;59263;48.160;11.752;2023-02-28T04:32:49;96336.84;;;-4.82;100.00
71457;BME280;59263;48.160;11.752;2023-02-28T04:35:17;96326.50;;;-4.73;100.00
71457;BME280;59263;48.160;11.752;2023-02-28T04:37:42;96304.88;;;-4.83;100.00
71457;BME280;59263;48.160;11.752;2023-02-28T04:40:08;96333.81;;;-4.62;100.00
71457;BME280;59263;48.160;11.752;2023-02-28T04:42:37;96320.19;;;-4.55;100.00
71457;BME280;59263;48.160;11.752;2023-02-28T04:45:03;96344.19;;;-4.40;100.00
71457;BME280;59263;48.160;11.752;2023-02-28T04:47:28;96337.38;;;-4.36;100.00
71457;BME280;59263;48.160;11.752;2023-02-28T04:49:54;96337.13;;;-4.27;100.00
71457;BME280;59263;48.160;11.752;2023-02-28T04:52:21;96332.03;;;-4.26;100.00
71457;BME280;59263;48.160;11.752;2023-02-28T04:54:47;96322.09;;;-4.32;100.00
71457;BME280;59263;48.160;11.752;2023-02-28T04:57:12;96340.97;;;-4.14;100.00
71457;BME280;59263;48.160;11.752;2023-02-28T04:59:41;96343.38;;;-4.09;100.00
71457;BME280;59263;48.160;11.752;2023-02-28T05:02:06;96334.84;;;-4.05;100.00
71457;BME280;59263;48.160;11.752;2023-02-28T05:04:35;96306.59;;;-4.20;100.00
71457;BME280;59263;48.160;11.752;2023-02-28T05:07:02;96328.16;;;-4.06;100.00
71457;BME280;59263;48.160;11.752;2023-02-28T05:09:28;96335.66;;;-4.03;100.00
71457;BME280;59263;48.160;11.752;2023-02-28T05:11:53;96352.84;;;-3.85;100.00
71457;BME280;59263;48.160;11.752;2023-02-28T05:14:19;96335.44;;;-3.96;100.00
71457;BME280;59263;48.160;11.752;2023-02-28T05:16:44;96365.28;;;-3.79;100.00
71457;BME280;59263;48.160;11.752;2023-02-28T05:19:10;96322.13;;;-4.02;100.00
71457;BME280;59263;48.160;11.752;2023-02-28T05:21:40;96322.00;;;-3.98;100.00
71457;BME280;59263;48.160;11.752;2023-02-28T05:24:09;96350.03;;;-3.76;100.00
71457;BME280;59263;48.160;11.752;2023-02-28T05:26:37;96371.66;;;-3.66;100.00
71457;BME280;59263;48.160;11.752;2023-02-28T05:29:03;96307.84;;;-4.03;100.00
71457;BME280;59263;48.160;11.752;2023-02-28T05:31:28;96330.09;;;-3.85;100.00
71457;BME280;59263;48.160;11.752;2023-02-28T05:33:53;96363.16;;;-3.63;100.00
71457;BME280;59263;48.160;11.752;2023-02-28T05:36:19;96357.97;;;-3.58;100.00
71457;BME280;59263;48.160;11.752;2023-02-28T05:38:49;96346.22;;;-3.59;100.00
71457;BME280;59263;48.160;11.752;2023-02-28T05:41:15;96334.50;;;-3.63;100.00
71457;BME280;59263;48.160;11.752;2023-02-28T05:43:41;96352.09;;;-3.59;100.00
71457;BME280;59263;48.160;11.752;2023-02-28T05:46:08;96330.31;;;-3.65;100.00
71457;BME280;59263;48.160;11.752;2023-02-28T05:48:34;96340.19;;;-3.55;100.00
71457;BME280;59263;48.160;11.752;2023-02-28T05:51:01;96358.94;;;-3.34;100.00
71457;BME280;59263;48.160;11.752;2023-02-28T05:53:27;96328.22;;;-3.50;100.00
71457;BME280;59263;48.160;11.752;2023-02-28T05:55:53;96319.97;;;-3.55;100.00
71457;BME280;59263;48.160;11.752;2023-02-28T05:58:18;96344.78;;;-3.40;100.00
71457;BME280;59263;48.160;11.752;2023-02-28T06:00:44;96352.19;;;-3.34;100.00
71457;BME280;59263;48.160;11.752;2023-02-28T06:03:09;96347.31;;;-3.40;100.00
71457;BME280;59263;48.160;11.752;2023-02-28T06:05:34;96329.03;;;-3.50;100.00
71457;BME280;59263;48.160;11.752;2023-02-28T06:08:00;96368.84;;;-3.27;100.00
71457;BME280;59263;48.160;11.752;2023-02-28T06:10:25;96343.31;;;-3.47;100.00
71457;BME280;59263;48.160;11.752;2023-02-28T06:12:50;96383.16;;;-3.26;100.00
71457;BME280;59263;48.160;11.752;2023-02-28T06:15:18;96346.44;;;-3.39;100.00
71457;BME280;59263;48.160;11.752;2023-02-28T06:17:44;96339.91;;;-3.46;100.00
71457;BME280;59263;48.160;11.752;2023-02-28T06:20:10;96369.53;;;-3.22;100.00
71457;BME280;59263;48.160;11.752;2023-02-28T06:22:38;96383.75;;;-3.18;100.00
71457;BME280;59263;48.160;11.752;2023-02-28T06:25:05;96385.56;;;-3.23;100.00
71457;BME280;59263;48.160;11.752;2023-02-28T06:27:32;96388.09;;;-3.23;100.00
71457;BME280;59263;48.160;11.752;2023-02-28T06:29:58;96376.63;;;-3.33;100.00
71457;BME280;59263;48.160;11.752;2023-02-28T06:32:23;96375.06;;;-3.37;100.00
71457;BME280;59263;48.160;11.752;2023-02-28T06:34:51;96377.22;;;-3.25;100.00
71457;BME280;59263;48.160;11.752;2023-02-28T06:37:17;96370.59;;;-3.29;100.00
71457;BME280;59263;48.160;11.752;2023-02-28T06:39:45;96347.31;;;-3.40;100.00
71457;BME280;59263;48.160;11.752;2023-02-28T06:42:12;96377.13;;;-3.22;100.00
71457;BME280;59263;48.160;11.752;2023-02-28T06:44:38;96406.16;;;-3.05;100.00
71457;BME280;59263;48.160;11.752;2023-02-28T06:47:05;96344.72;;;-3.37;100.00
71457;BME280;59263;48.160;11.752;2023-02-28T06:49:33;96406.91;;;-3.02;100.00
71457;BME280;59263;48.160;11.752;2023-02-28T06:51:58;96411.03;;;-2.99;100.00
71457;BME280;59263;48.160;11.752;2023-02-28T06:54:24;96402.06;;;-3.09;100.00
71457;BME280;59263;48.160;11.752;2023-02-28T06:56:49;96387.03;;;-3.14;100.00
71457;BME280;59263;48.160;11.752;2023-02-28T06:59:15;96420.13;;;-2.94;100.00
71457;BME280;59263;48.160;11.752;2023-02-28T07:01:40;96404.41;;;-3.03;100.00
71457;BME280;59263;48.160;11.752;2023-02-28T07:04:06;96402.06;;;-3.09;100.00
71457;BME280;59263;48.160;11.752;2023-02-28T07:06:32;96406.06;;;-3.02;100.00
71457;BME280;59263;48.160;11.752;2023-02-28T07:08:58;96429.34;;;-2.91;100.00
71457;BME280;59263;48.160;11.752;2023-02-28T07:11:25;96419.53;;;-3.00;100.00
71457;BME280;59263;48.160;11.752;2023-02-28T07:13:54;96421.09;;;-2.98;100.00
71457;BME280;59263;48.160;11.752;2023-02-28T07:16:22;96435.91;;;-2.84;100.00
71457;BME280;59263;48.160;11.752;2023-02-28T07:18:48;96437.63;;;-2.86;100.00
71457;BME280;59263;48.160;11.752;2023-02-28T07:21:14;96420.28;;;-2.98;100.00
71457;BME280;59263;48.160;11.752;2023-02-28T07:23:40;96426.88;;;-2.93;100.00
71457;BME280;59263;48.160;11.752;2023-02-28T07:26:06;96412.44;;;-2.89;100.00
71457;BME280;59263;48.160;11.752;2023-02-28T07:28:32;96405.97;;;-2.99;100.00
71457;BME280;59263;48.160;11.752;2023-02-28T07:31:04;96424.84;;;-2.81;100.00
71457;BME280;59263;48.160;11.752;2023-02-28T07:33:30;96410.06;;;-2.95;100.00
71457;BME280;59263;48.160;11.752;2023-02-28T07:36:01;96413.94;;;-2.83;100.00
71457;BME280;59263;48.160;11.752;2023-02-28T07:38:26;96394.00;;;-2.94;100.00
71457;BME280;59263;48.160;11.752;2023-02-28T07:40:51;96420.53;;;-2.78;100.00
71457;BME280;59263;48.160;11.752;2023-02-28T07:43:17;96404.47;;;-2.78;100.00
71457;BME280;59263;48.160;11.752;2023-02-28T07:45:43;96410.91;;;-2.68;100.00
71457;BME280;59263;48.160;11.752;2023-02-28T07:48:09;96406.97;;;-2.77;100.00
71457;BME280;59263;48.160;11.752;2023-02-28T07:50:35;96427.59;;;-2.61;100.00
71457;BME280;59263;48.160;11.752;2023-02-28T07:53:00;96439.19;;;-2.54;100.00
71457;BME280;59263;48.160;11.752;2023-02-28T07:55:26;96424.13;;;-2.58;100.00
71457;BME280;59263;48.160;11.752;2023-02-28T07:57:52;96421.88;;;-2.68;100.00
71457;BME280;59263;48.160;11.752;2023-02-28T08:00:18;96430.94;;;-2.60;100.00
71457;BME280;59263;48.160;11.752;2023-02-28T08:02:43;96411.72;;;-2.66;100.00
71457;BME280;59263;48.160;11.752;2023-02-28T08:05:09;96429.59;;;-2.44;100.00
71457;BME280;59263;48.160;11.752;2023-02-28T08:07:34;96439.31;;;-2.32;100.00
71457;BME280;59263;48.160;11.752;2023-02-28T08:10:00;96436.88;;;-2.35;100.00
71457;BME280;59263;48.160;11.752;2023-02-28T08:12:25;96436.88;;;-2.35;100.00
71457;BME280;59263;48.160;11.752;2023-02-28T08:14:51;96419.56;;;-2.47;100.00
71457;BME280;59263;48.160;11.752;2023-02-28T08:17:16;96431.25;;;-2.43;100.00
71457;BME280;59263;48.160;11.752;2023-02-28T08:19:45;96429.50;;;-2.41;100.00
71457;BME280;59263;48.160;11.752;2023-02-28T08:22:10;96433.78;;;-2.43;100.00
71457;BME280;59263;48.160;11.752;2023-02-28T08:24:36;96436.13;;;-2.37;100.00
71457;BME280;59263;48.160;11.752;2023-02-28T08:27:01;96416.53;;;-2.32;100.00
71457;BME280;59263;48.160;11.752;2023-02-28T08:29:29;96443.38;;;-2.26;100.00
71457;BME280;59263;48.160;11.752;2023-02-28T08:31:55;96432.38;;;-2.27;100.00
71457;BME280;59263;48.160;11.752;2023-02-28T08:34:22;96447.00;;;-2.08;100.00
71457;BME280;59263;48.160;11.752;2023-02-28T08:36:50;96445.25;;;-2.06;100.00
71457;BME280;59263;48.160;11.752;2023-02-28T08:39:16;96466.75;;;-1.93;100.00
71457;BME280;59263;48.160;11.752;2023-02-28T08:41:42;96472.56;;;-1.89;100.00
71457;BME280;59263;48.160;11.752;2023-02-28T08:44:09;96471.06;;;-1.95;100.00
71457;BME280;59263;48.160;11.752;2023-02-28T08:46:34;96449.53;;;-2.08;100.00
71457;BME280;59263;48.160;11.752;2023-02-28T08:48:59;96462.91;;;-2.03;100.00
71457;BME280;59263;48.160;11.752;2023-02-28T08:51:27;96487.06;;;-1.93;100.00
71457;BME280;59263;48.160;11.752;2023-02-28T08:53:57;96478.34;;;-1.86;100.00
71457;BME280;59263;48.160;11.752;2023-02-28T08:56:23;96446.69;;;-1.99;100.00
71457;BME280;59263;48.160;11.752;2023-02-28T08:58:50;96446.53;;;-1.95;100.00
71457;BME280;59263;48.160;11.752;2023-02-28T09:01:21;96482.69;;;-1.63;100.00
71457;BME280;59263;48.160;11.752;2023-02-28T09:03:49;96482.41;;;-1.55;100.00
71457;BME280;59263;48.160;11.752;2023-02-28T09:06:15;96452.38;;;-1.67;100.00
71457;BME280;59263;48.160;11.752;2023-02-28T09:08:42;96461.97;;;-1.52;100.00
71457;BME280;59263;48.160;11.752;2023-02-28T09:11:09;96483.91;;;-1.26;100.00
71457;BME280;59263;48.160;11.752;2023-02-28T09:13:34;96485.31;;;-1.17;100.00
71457;BME280;59263;48.160;11.752;2023-02-28T09:16:01;96487.19;;;-0.99;100.00
71457;BME280;59263;48.160;11.752;2023-02-28T09:18:28;96451.13;;;-1.09;100.00
71457;BME280;59263;48.160;11.752;2023-02-28T09:20:53;96442.69;;;-1.09;100.00
71457;BME280;59263;48.160;11.752;2023-02-28T09:23:19;96428.56;;;-1.16;100.00
71457;BME280;59263;48.160;11.752;2023-02-28T09:25:46;96490.78;;;-0.83;100.00
71457;BME280;59263;48.160;11.752;2023-02-28T09:28:12;96469.94;;;-0.91;100.00
71457;BME280;59263;48.160;11.752;2023-02-28T09:30:40;96492.41;;;-0.80;100.00
71457;BME280;59263;48.160;11.752;2023-02-28T09:33:06;96499.38;;;-0.85;100.00
71457;BME280;59263;48.160;11.752;2023-02-28T09:35:31;96502.38;;;-0.76;100.00
71457;BME280;59263;48.160;11.752;2023-02-28T09:37:56;96513.66;;;-0.83;100.00
71457;BME280;59263;48.160;11.752;2023-02-28T09:40:24;96507.19;;;-0.68;100.00
71457;BME280;59263;48.160;11.752;2023-02-28T09:42:52;96511.31;;;-0.65;100.00
71457;BME280;59263;48.160;11.752;2023-02-28T09:45:35;96509.44;;;-0.60;100.00
71457;BME280;59263;48.160;11.752;2023-02-28T09:48:06;96494.53;;;-0.69;100.00
71457;BME280;59263;48.160;11.752;2023-02-28T09:50:46;96520.69;;;-0.44;100.00
71457;BME280;59263;48.160;11.752;2023-02-28T09:53:22;96469.88;;;-0.67;100.00
71457;BME280;59263;48.160;11.752;2023-02-28T09:56:07;96463.47;;;-0.54;100.00
71457;BME280;59263;48.160;11.752;2023-02-28T09:58:56;96514.28;;;-0.10;100.00
71457;BME280;59263;48.160;11.752;2023-02-28T10:01:44;96525.75;;;0.00;100.00
71457;BME280;59263;48.160;11.752;2023-02-28T10:06:46;96521.31;;;0.26;100.00
71457;BME280;59263;48.160;11.752;2023-02-28T10:09:18;96511.78;;;0.31;100.00
71457;BME280;59263;48.160;11.752;2023-02-28T10:11:48;96499.31;;;0.24;100.00
71457;BME280;59263;48.160;11.752;2023-02-28T10:14:19;96493.16;;;0.30;100.00
71457;BME280;59263;48.160;11.752;2023-02-28T10:16:55;96495.91;;;0.44;100.00
71457;BME280;59263;48.160;11.752;2023-02-28T10:22:14;96457.72;;;0.65;100.00
71457;BME280;59263;48.160;11.752;2023-02-28T10:27:24;96508.31;;;1.12;100.00
71457;BME280;59263;48.160;11.752;2023-02-28T10:29:52;96513.66;;;1.06;100.00
71457;BME280;59263;48.160;11.752;2023-02-28T10:32:21;96502.72;;;0.64;100.00
71457;BME280;59263;48.160;11.752;2023-02-28T10:35:09;96517.88;;;0.67;100.00
71457;BME280;59263;48.160;11.752;2023-02-28T10:37:45;96512.41;;;0.56;100.00
71457;BME280;59263;48.160;11.752;2023-02-28T10:40:32;96520.41;;;0.47;100.00
71457;BME280;59263;48.160;11.752;2023-02-28T10:43:17;96505.44;;;0.41;100.00
71457;BME280;59263;48.160;11.752;2023-02-28T10:45:56;96514.31;;;0.51;100.00
71457;BME280;59263;48.160;11.752;2023-02-28T10:53:23;96518.50;;;0.72;100.00
71457;BME280;59263;48.160;11.752;2023-02-28T10:56:14;96514.38;;;0.89;100.00
71457;BME280;59263;48.160;11.752;2023-02-28T11:04:36;96493.03;;;0.72;100.00
71457;BME280;59263;48.160;11.752;2023-02-28T11:07:14;96526.75;;;0.98;100.00
71457;BME280;59263;48.160;11.752;2023-02-28T11:09:45;96528.25;;;1.02;100.00
71457;BME280;59263;48.160;11.752;2023-02-28T11:12:37;96527.97;;;0.89;100.00
71457;BME280;59263;48.160;11.752;2023-02-28T11:15:14;96507.31;;;0.56;100.00
71457;BME280;59263;48.160;11.752;2023-02-28T11:17:43;96505.56;;;0.38;100.00
71457;BME280;59263;48.160;11.752;2023-02-28T11:20:19;96473.72;;;0.28;100.00
71457;BME280;59263;48.160;11.752;2023-02-28T11:22:47;96518.25;;;0.58;100.00
71457;BME280;59263;48.160;11.752;2023-02-28T11:25:24;96495.25;;;0.41;100.00
71457;BME280;59263;48.160;11.752;2023-02-28T11:27:53;96509.47;;;0.65;100.00
71457;BME280;59263;48.160;11.752;2023-02-28T11:30:32;96513.41;;;0.72;100.00
71457;BME280;59263;48.160;11.752;2023-02-28T11:32:59;96521.16;;;0.69;100.00
71457;BME280;59263;48.160;11.752;2023-02-28T11:35:33;96522.69;;;0.73;100.00
71457;BME280;59263;48.160;11.752;2023-02-28T11:37:59;96484.53;;;0.53;100.00
71457;BME280;59263;48.160;11.752;2023-02-28T11:40:30;96505.22;;;0.85;100.00
71457;BME280;59263;48.160;11.752;2023-02-28T11:43:20;96499.19;;;1.06;100.00
71457;BME280;59263;48.160;11.752;2023-02-28T11:51:34;96486.19;;;1.67;100.00
71457;BME280;59263;48.160;11.752;2023-02-28T11:56:47;96483.97;;;1.79;100.00
71457;BME280;59263;48.160;11.752;2023-02-28T11:59:40;96485.75;;;1.77;100.00
71457;BME280;59263;48.160;11.752;2023-02-28T12:02:24;96474.88;;;1.73;100.00
71457;BME280;59263;48.160;11.752;2023-02-28T12:07:59;96485.69;;;1.96;100.00
71457;BME280;59263;48.160;11.752;2023-02-28T12:10:30;96474.13;;;1.71;100.00
71457;BME280;59263;48.160;11.752;2023-02-28T12:15:57;96480.19;;;1.68;100.00
71457;BME280;59263;48.160;11.752;2023-02-28T12:26:38;96465.84;;;1.49;100.00
71457;BME280;59263;48.160;11.752;2023-02-28T12:29:12;96470.91;;;1.67;100.00
71457;BME280;59263;48.160;11.752;2023-02-28T12:32:03;96461.47;;;1.87;100.00
71457;BME280;59263;48.160;11.752;2023-02-28T12:35:24;96462.84;;;2.11;100.00
71457;BME280;59263;48.160;11.752;2023-02-28T12:37:53;96463.28;;;2.20;100.00
71457;BME280;59263;48.160;11.752;2023-02-28T12:40:23;96464.09;;;2.20;100.00
71457;BME280;59263;48.160;11.752;2023-02-28T12:42:58;96456.50;;;2.18;100.00
71457;BME280;59263;48.160;11.752;2023-02-28T12:45:34;96443.66;;;2.20;100.00
71457;BME280;59263;48.160;11.752;2023-02-28T12:48:08;96427.06;;;2.29;100.00
71457;BME280;59263;48.160;11.752;2023-02-28T12:50:36;96454.09;;;2.66;100.00
71457;BME280;59263;48.160;11.752;2023-02-28T12:53:29;96444.41;;;2.73;100.00
71457;BME280;59263;48.160;11.752;2023-02-28T12:56:22;96460.66;;;3.03;100.00
71457;BME280;59263;48.160;11.752;2023-02-28T12:58:55;96442.78;;;3.03;100.00
71457;BME280;59263;48.160;11.752;2023-02-28T13:07:04;96444.00;;;4.05;100.00
71457;BME280;59263;48.160;11.752;2023-02-28T13:09:33;96434.88;;;4.16;100.00
71457;BME280;59263;48.160;11.752;2023-02-28T13:11:58;96424.19;;;4.52;100.00
71457;BME280;59263;48.160;11.752;2023-02-28T13:14:30;96431.25;;;4.77;100.00
71457;BME280;59263;48.160;11.752;2023-02-28T13:19:34;96420.84;;;6.02;100.00
71457;BME280;59263;48.160;11.752;2023-02-28T13:22:02;96434.78;;;5.03;100.00
71457;BME280;59263;48.160;11.752;2023-02-28T13:24:39;96434.97;;;4.85;100.00
71457;BME280;59263;48.160;11.752;2023-02-28T13:29:39;96413.28;;;4.20;100.00
71457;BME280;59263;48.160;11.752;2023-02-28T13:34:32;96443.94;;;3.45;100.00
71457;BME280;59263;48.160;11.752;2023-02-28T13:39:48;96447.94;;;2.70;100.00
71457;BME280;59263;48.160;11.752;2023-02-28T13:56:07;96450.28;;;3.06;100.00
71457;BME280;59263;48.160;11.752;2023-02-28T14:01:29;96433.53;;;3.48;100.00
71457;BME280;59263;48.160;11.752;2023-02-28T14:06:51;96428.19;;;3.53;100.00
71457;BME280;59263;48.160;11.752;2023-02-28T14:09:25;96432.72;;;3.78;100.00
71457;BME280;59263;48.160;11.752;2023-02-28T14:11:51;96434.84;;;3.85;100.00
71457;BME280;59263;48.160;11.752;2023-02-28T14:17:05;96429.44;;;4.79;100.00
71457;BME280;59263;48.160;11.752;2023-02-28T14:19:34;96405.47;;;5.07;100.00
71457;BME280;59263;48.160;11.752;2023-02-28T14:25:05;96415.41;;;5.80;100.00
71457;BME280;59263;48.160;11.752;2023-02-28T14:27:37;96424.28;;;7.16;100.00
71457;BME280;59263;48.160;11.752;2023-02-28T14:36:04;96416.66;;;7.15;100.00
71457;BME280;59263;48.160;11.752;2023-02-28T14:38:35;96419.44;;;7.48;100.00
71457;BME280;59263;48.160;11.752;2023-02-28T14:41:05;96404.31;;;7.20;100.00
71457;BME280;59263;48.160;11.752;2023-02-28T14:43:36;96383.22;;;7.15;100.00
71457;BME280;59263;48.160;11.752;2023-02-28T14:46:16;96394.03;;;7.20;100.00